createdAt,value
2016-07-16T00:00:51.021Z,13.96
2016-07-16T00:02:05.975Z,13.88
2016-07-16T00:03:05.998Z,13.88
2016-07-16T00:04:06.021Z,13.88
2016-07-16T00:04:51.818Z,13.81
2016-07-16T00:05:51.153Z,13.66
2016-07-16T00:06:51.177Z,13.78
2016-07-16T00:07:51.202Z,13.79
2016-07-16T00:08:51.224Z,13.67
2016-07-16T00:09:51.251Z,13.66
2016-07-16T00:10:51.275Z,13.67
2016-07-16T00:11:51.306Z,13.66
2016-07-16T00:12:51.326Z,13.64
2016-07-16T00:13:51.350Z,13.69
2016-07-16T00:14:51.378Z,13.6
2016-07-16T00:15:51.405Z,13.62
2016-07-16T00:16:51.431Z,13.62
2016-07-16T00:18:06.378Z,13.67
2016-07-16T00:18:51.483Z,13.49
2016-07-16T00:19:51.503Z,13.59
2016-07-16T00:20:51.533Z,13.54
2016-07-16T00:21:51.556Z,13.52
2016-07-16T00:22:51.584Z,13.49
2016-07-16T00:23:51.603Z,13.39
2016-07-16T00:24:51.627Z,13.44
2016-07-16T00:25:51.658Z,13.48
2016-07-16T00:26:51.679Z,13.41
2016-07-16T00:27:51.703Z,13.29
2016-07-16T00:29:51.818Z,13.28
2016-07-16T00:30:51.775Z,13.29
2016-07-16T00:31:51.810Z,13.33
2016-07-16T00:32:51.828Z,13.26
2016-07-16T00:33:51.853Z,13.32
2016-07-16T00:34:52.592Z,13.26
2016-07-16T00:35:51.914Z,13.33
2016-07-16T00:36:51.927Z,13.22
2016-07-16T00:37:51.955Z,13.22
2016-07-16T00:39:52.005Z,13.26
2016-07-16T00:40:52.025Z,13.17
2016-07-16T00:41:52.052Z,13.14
2016-07-16T00:43:07.012Z,13.22
2016-07-16T00:43:52.101Z,13.2
2016-07-16T00:44:52.130Z,13.19
2016-07-16T00:45:52.161Z,13.19
2016-07-16T00:46:52.185Z,13.22
2016-07-16T00:47:52.212Z,13.19
2016-07-16T00:48:52.238Z,13.23
2016-07-16T00:50:07.181Z,13.12
2016-07-16T00:50:52.290Z,13.19
2016-07-16T00:51:52.304Z,13.14
2016-07-16T00:53:52.353Z,13.05
2016-07-16T00:54:52.380Z,13.07
2016-07-16T00:55:52.408Z,12.96
2016-07-16T00:56:52.432Z,12.93
2016-07-16T00:57:52.450Z,12.9
2016-07-16T00:58:52.482Z,12.82
2016-07-16T00:59:52.501Z,12.89
2016-07-16T01:00:52.532Z,12.92
2016-07-16T01:02:07.484Z,12.85
2016-07-16T01:02:52.574Z,12.9
2016-07-16T01:03:52.603Z,12.9
2016-07-16T01:04:52.625Z,12.92
2016-07-16T01:06:07.582Z,12.86
2016-07-16T01:06:52.687Z,12.9
2016-07-16T01:07:52.707Z,12.86
2016-07-16T01:08:52.735Z,12.83
2016-07-16T01:09:52.754Z,12.79
2016-07-16T01:10:52.784Z,12.85
2016-07-16T01:11:52.798Z,12.83
2016-07-16T01:12:52.832Z,12.77
2016-07-16T01:13:52.865Z,12.77
2016-07-16T01:14:52.873Z,12.79
2016-07-16T01:15:52.906Z,12.82
2016-07-16T01:16:52.933Z,12.72
2016-07-16T01:17:52.951Z,12.74
2016-07-16T01:18:52.995Z,12.68
2016-07-16T01:19:52.995Z,12.62
2016-07-16T01:20:53.025Z,12.7
2016-07-16T01:22:07.980Z,12.68
2016-07-16T01:22:53.076Z,12.79
2016-07-16T01:24:53.134Z,12.67
2016-07-16T01:25:53.153Z,12.67
2016-07-16T01:26:53.175Z,12.68
2016-07-16T01:27:53.202Z,12.57
2016-07-16T01:28:53.227Z,12.68
2016-07-16T01:29:53.250Z,12.68
2016-07-16T01:30:53.274Z,12.67
2016-07-16T01:31:53.301Z,12.62
2016-07-16T01:32:53.325Z,12.68
2016-07-16T01:33:53.352Z,12.6
2016-07-16T01:34:53.368Z,12.56
2016-07-16T01:35:53.400Z,12.71
2016-07-16T01:36:53.427Z,12.7
2016-07-16T01:38:08.367Z,12.65
2016-07-16T01:38:53.470Z,12.68
2016-07-16T01:39:53.497Z,12.65
2016-07-16T01:40:53.523Z,12.7
2016-07-16T01:41:53.544Z,12.56
2016-07-16T01:42:53.569Z,12.67
2016-07-16T01:43:53.599Z,12.65
2016-07-16T01:44:53.618Z,12.62
2016-07-16T01:45:54.355Z,12.68
2016-07-16T01:46:53.673Z,12.64
2016-07-16T01:47:53.692Z,12.65
2016-07-16T01:49:08.648Z,12.56
2016-07-16T01:49:53.745Z,12.65
2016-07-16T01:50:53.769Z,12.68
2016-07-16T01:51:53.791Z,12.67
2016-07-16T01:53:08.738Z,12.68
2016-07-16T01:53:53.843Z,12.65
2016-07-16T01:54:53.866Z,12.7
2016-07-16T01:55:53.897Z,12.64
2016-07-16T01:56:53.923Z,12.65
2016-07-16T01:57:53.942Z,12.75
2016-07-16T01:58:53.971Z,12.77
2016-07-16T01:59:53.993Z,12.67
2016-07-16T02:00:54.020Z,12.62
2016-07-16T02:01:54.039Z,12.71
2016-07-16T02:02:54.066Z,12.71
2016-07-16T02:03:54.087Z,12.82
2016-07-16T02:04:54.113Z,12.79
2016-07-16T02:05:54.141Z,12.86
2016-07-16T02:06:54.166Z,12.7
2016-07-16T02:07:54.188Z,12.71
2016-07-16T02:08:54.212Z,12.7
2016-07-16T02:09:54.236Z,12.75
2016-07-16T02:10:54.262Z,12.68
2016-07-16T02:11:54.288Z,12.77
2016-07-16T02:12:54.309Z,12.64
2016-07-16T02:13:54.338Z,12.72
2016-07-16T02:14:54.362Z,12.77
2016-07-16T02:15:54.388Z,12.65
2016-07-16T02:16:54.407Z,12.68
2016-07-16T02:17:54.430Z,12.74
2016-07-16T02:18:54.458Z,12.77
2016-07-16T02:19:54.486Z,12.67
2016-07-16T02:20:54.505Z,12.75
2016-07-16T02:22:09.458Z,12.72
2016-07-16T02:22:54.558Z,12.7
2016-07-16T02:23:54.578Z,12.83
2016-07-16T02:25:09.530Z,12.79
2016-07-16T02:25:54.628Z,12.85
2016-07-16T02:26:54.653Z,12.71
2016-07-16T02:27:54.682Z,12.72
2016-07-16T02:28:54.701Z,12.83
2016-07-16T02:29:54.722Z,12.83
2016-07-16T02:30:54.756Z,12.65
2016-07-16T02:31:54.769Z,12.68
2016-07-16T02:32:54.797Z,12.78
2016-07-16T02:33:54.823Z,12.65
2016-07-16T02:34:54.844Z,12.62
2016-07-16T02:35:54.870Z,12.64
2016-07-16T02:36:54.896Z,12.68
2016-07-16T02:38:54.943Z,12.65
2016-07-16T02:39:54.969Z,12.53
2016-07-16T02:41:09.916Z,12.5
2016-07-16T02:41:55.018Z,12.54
2016-07-16T02:42:55.049Z,12.49
2016-07-16T02:43:55.072Z,12.46
2016-07-16T02:44:55.093Z,12.46
2016-07-16T02:45:55.117Z,12.47
2016-07-16T02:46:55.140Z,12.42
2016-07-16T02:47:55.161Z,12.46
2016-07-16T02:48:55.191Z,12.45
2016-07-16T02:49:55.215Z,12.45
2016-07-16T02:50:55.238Z,12.42
2016-07-16T02:51:55.264Z,12.42
2016-07-16T02:52:55.285Z,12.32
2016-07-16T02:53:55.312Z,12.41
2016-07-16T02:54:55.332Z,12.32
2016-07-16T02:55:55.357Z,12.35
2016-07-16T02:57:10.313Z,12.45
2016-07-16T02:57:55.407Z,12.31
2016-07-16T02:58:55.442Z,12.28
2016-07-16T02:59:55.459Z,12.37
2016-07-16T03:01:55.509Z,12.29
2016-07-16T03:02:55.534Z,12.37
2016-07-16T03:03:55.561Z,12.28
2016-07-16T03:04:55.578Z,12.31
2016-07-16T03:05:55.607Z,12.27
2016-07-16T03:06:55.633Z,12.23
2016-07-16T03:07:55.652Z,12.23
2016-07-16T03:08:55.682Z,12.34
2016-07-16T03:09:55.707Z,12.23
2016-07-16T03:10:55.727Z,12.37
2016-07-16T03:11:55.766Z,12.28
2016-07-16T03:13:10.700Z,12.28
2016-07-16T03:14:10.724Z,12.28
2016-07-16T03:14:55.828Z,12.24
2016-07-16T03:15:55.846Z,12.34
2016-07-16T03:16:55.870Z,12.27
2016-07-16T03:17:55.898Z,12.28
2016-07-16T03:18:55.922Z,12.17
2016-07-16T03:19:55.948Z,12.2
2016-07-16T03:20:55.970Z,12.21
2016-07-16T03:22:10.927Z,12.07
2016-07-16T03:22:56.018Z,12.14
2016-07-16T03:23:56.057Z,11.99
2016-07-16T03:24:56.063Z,12.1
2016-07-16T03:25:56.092Z,12.02
2016-07-16T03:26:56.123Z,12.02
2016-07-16T03:28:11.066Z,12.01
2016-07-16T03:29:11.089Z,12.1
2016-07-16T03:29:56.192Z,12.04
2016-07-16T03:30:56.217Z,12.14
2016-07-16T03:31:56.237Z,12.16
2016-07-16T03:32:56.264Z,12.05
2016-07-16T03:33:56.289Z,12.04
2016-07-16T03:34:57.012Z,12.01
2016-07-16T03:35:56.335Z,11.99
2016-07-16T03:36:56.357Z,11.98
2016-07-16T03:37:56.389Z,12.02
2016-07-16T03:38:56.411Z,12.02
2016-07-16T03:39:56.434Z,12.01
2016-07-16T03:40:56.456Z,11.96
2016-07-16T03:41:56.499Z,11.98
2016-07-16T03:42:56.510Z,11.94
2016-07-16T03:43:56.532Z,11.91
2016-07-16T03:44:56.550Z,12.07
2016-07-16T03:45:56.576Z,11.98
2016-07-16T03:47:56.661Z,12.05
2016-07-16T03:48:56.660Z,12.17
2016-07-16T03:49:56.674Z,12.1
2016-07-16T03:50:56.701Z,12.19
2016-07-16T03:51:56.725Z,12.14
2016-07-16T03:52:56.749Z,12.16
2016-07-16T03:53:56.777Z,12.14
2016-07-16T03:54:57.496Z,12.1
2016-07-16T03:55:56.820Z,12.14
2016-07-16T03:57:11.777Z,12.16
2016-07-16T03:58:56.897Z,12.23
2016-07-16T04:00:11.846Z,12.32
2016-07-16T04:01:56.975Z,12.24
2016-07-16T04:03:11.931Z,12.19
2016-07-16T04:03:57.019Z,12.24
2016-07-16T04:04:57.044Z,12.21
2016-07-16T04:05:57.066Z,12.23
2016-07-16T04:06:57.097Z,12.35
2016-07-16T04:07:57.120Z,12.37
2016-07-16T04:08:57.140Z,12.41
2016-07-16T04:10:57.187Z,12.54
2016-07-16T04:11:57.215Z,12.65
2016-07-16T04:13:12.166Z,12.68
2016-07-16T04:14:12.192Z,12.71
2016-07-16T04:14:57.290Z,12.75
2016-07-16T04:16:12.239Z,12.82
2016-07-16T04:16:57.342Z,12.75
2016-07-16T04:17:57.364Z,12.92
2016-07-16T04:18:57.383Z,13.38
2016-07-16T04:19:57.413Z,13.69
2016-07-16T04:20:57.434Z,14.1
2016-07-16T04:21:57.461Z,14.2
2016-07-16T04:23:12.419Z,14.45
2016-07-16T04:23:57.512Z,14.57
2016-07-16T04:24:57.533Z,14.57
2016-07-16T04:25:57.564Z,14.65
2016-07-16T04:26:57.592Z,14.57
2016-07-16T04:27:57.614Z,14.52
2016-07-16T04:28:57.637Z,14.42
2016-07-16T04:29:57.659Z,14.42
2016-07-16T04:32:12.636Z,14.4
2016-07-16T04:32:57.732Z,14.46
2016-07-16T04:33:57.764Z,14.5
2016-07-16T04:34:57.791Z,14.55
2016-07-16T04:35:57.811Z,14.51
2016-07-16T04:36:57.836Z,14.5
2016-07-16T04:37:57.865Z,14.42
2016-07-16T04:38:57.888Z,14.43
2016-07-16T04:39:57.915Z,14.5
2016-07-16T04:40:57.939Z,14.57
2016-07-16T04:41:57.963Z,14.81
2016-07-16T04:42:57.990Z,15.09
2016-07-16T04:43:58.017Z,15.87
2016-07-16T04:44:58.038Z,16.67
2016-07-16T04:45:58.064Z,17.44
2016-07-16T04:47:13.020Z,18.51
2016-07-16T04:48:13.041Z,19.46
2016-07-16T04:49:13.072Z,19.69
2016-07-16T04:50:13.095Z,20.67
2016-07-16T04:50:58.211Z,21.37
2016-07-16T04:51:58.229Z,22.07
2016-07-16T04:52:58.258Z,22.47
2016-07-16T04:53:58.287Z,22.9
2016-07-16T04:54:58.317Z,23.17
2016-07-16T04:55:58.349Z,23.25
2016-07-16T04:56:58.370Z,23.87
2016-07-16T04:57:58.401Z,24.25
2016-07-16T04:58:58.426Z,24.47
2016-07-16T04:59:58.460Z,24.42
2016-07-16T05:00:58.489Z,24.69
2016-07-16T05:01:58.529Z,25.08
2016-07-16T05:03:13.476Z,25.36
2016-07-16T05:04:58.620Z,25.87
2016-07-16T05:05:58.652Z,26.06
2016-07-16T05:06:58.676Z,26.37
2016-07-16T05:07:58.706Z,26.8
2016-07-16T05:08:58.734Z,27.21
2016-07-16T05:09:58.773Z,27.46
2016-07-16T05:10:58.805Z,27.65
2016-07-16T05:11:58.832Z,27.31
2016-07-16T05:12:58.868Z,27.12
2016-07-16T05:13:58.901Z,26.81
2016-07-16T05:14:58.931Z,26.65
2016-07-16T05:15:58.964Z,26.65
2016-07-16T05:16:58.996Z,26.43
2016-07-16T05:17:59.030Z,26.5
2016-07-16T05:18:59.062Z,26.85
2016-07-16T05:19:59.107Z,27.27
2016-07-16T05:20:59.130Z,27.57
2016-07-16T05:21:59.162Z,27.88
2016-07-16T05:22:59.195Z,28.04
2016-07-16T05:23:59.228Z,28.22
2016-07-16T05:24:59.257Z,28.34
2016-07-16T05:25:59.295Z,28.03
2016-07-16T05:26:59.317Z,28.36
2016-07-16T05:27:59.358Z,28.76
2016-07-16T05:28:59.394Z,28.92
2016-07-16T05:29:59.430Z,29.31
2016-07-16T05:31:59.485Z,29.82
2016-07-16T05:32:59.517Z,30.08
2016-07-16T05:33:59.548Z,30.13
2016-07-16T05:35:15.262Z,29.49
2016-07-16T05:35:59.628Z,28.78
2016-07-16T05:37:14.576Z,27.67
2016-07-16T05:37:59.682Z,27.1
2016-07-16T05:38:59.719Z,26.6
2016-07-16T05:39:59.755Z,26.33
2016-07-16T05:40:59.782Z,26.47
2016-07-16T05:41:59.821Z,27.03
2016-07-16T05:42:59.845Z,26.92
2016-07-16T05:43:59.879Z,26.7
2016-07-16T05:44:59.919Z,26.47
2016-07-16T05:46:59.983Z,25.64
2016-07-16T05:48:00.005Z,25.42
2016-07-16T05:49:14.970Z,25.3
2016-07-16T05:50:00.075Z,25.4
2016-07-16T05:51:15.031Z,26.02
2016-07-16T05:52:00.147Z,26.05
2016-07-16T05:53:00.172Z,26.65
2016-07-16T05:54:00.204Z,26.47
2016-07-16T05:55:00.238Z,26.54
2016-07-16T05:56:00.267Z,26.58
2016-07-16T05:57:00.306Z,26.82
2016-07-16T05:58:00.332Z,27.67
2016-07-16T05:59:00.363Z,28.54
2016-07-16T06:00:00.397Z,28.61
2016-07-16T06:01:00.430Z,29.06
2016-07-16T06:02:00.471Z,29.48
2016-07-16T06:03:00.490Z,29.45
2016-07-16T06:04:00.520Z,29.02
2016-07-16T06:05:00.556Z,29.31
2016-07-16T06:06:00.589Z,29.51
2016-07-16T06:07:15.551Z,29.95
2016-07-16T06:08:00.658Z,30.43
2016-07-16T06:09:00.692Z,30.58
2016-07-16T06:10:00.728Z,30.16
2016-07-16T06:11:00.755Z,30.37
2016-07-16T06:12:00.790Z,30.76
2016-07-16T06:13:00.821Z,30.57
2016-07-16T06:14:00.861Z,30.45
2016-07-16T06:15:00.892Z,30.04
2016-07-16T06:16:00.920Z,30.35
2016-07-16T06:17:00.955Z,30.46
2016-07-16T06:18:00.989Z,30.61
2016-07-16T06:19:01.024Z,30.51
2016-07-16T06:21:01.103Z,31.04
2016-07-16T06:22:01.132Z,30.95
2016-07-16T06:23:16.085Z,31.28
2016-07-16T06:24:01.201Z,31.43
2016-07-16T06:25:01.227Z,31.41
2016-07-16T06:26:01.264Z,31.66
2016-07-16T06:27:01.299Z,31.51
2016-07-16T06:28:01.337Z,31.76
2016-07-16T06:29:01.369Z,31.76
2016-07-16T06:30:01.401Z,32.37
2016-07-16T06:31:01.435Z,32.79
2016-07-16T06:32:01.472Z,32.97
2016-07-16T06:33:01.514Z,32.93
2016-07-16T06:34:01.540Z,32.85
2016-07-16T06:35:01.578Z,32.7
2016-07-16T06:36:01.610Z,32.44
2016-07-16T06:37:01.640Z,32.57
2016-07-16T06:38:16.606Z,32.66
2016-07-16T06:39:01.716Z,32.25
2016-07-16T06:40:01.755Z,32.19
2016-07-16T06:42:01.816Z,32.35
2016-07-16T06:43:01.861Z,32.33
2016-07-16T06:44:01.889Z,32.33
2016-07-16T06:45:01.930Z,32.55
2016-07-16T06:46:01.961Z,32.38
2016-07-16T06:47:01.995Z,31.81
2016-07-16T06:48:02.034Z,31.02
2016-07-16T06:50:02.098Z,31.13
2016-07-16T06:51:02.136Z,31.54
2016-07-16T06:52:02.179Z,32.11
2016-07-16T06:53:02.210Z,31.91
2016-07-16T06:54:02.244Z,31.91
2016-07-16T06:55:17.202Z,32.23
2016-07-16T06:56:02.322Z,32.4
2016-07-16T06:57:02.349Z,32.62
2016-07-16T06:58:02.392Z,32.74
2016-07-16T06:59:02.422Z,32.65
2016-07-16T07:00:02.458Z,32.28
2016-07-16T07:01:02.495Z,31.92
2016-07-16T07:02:02.526Z,32.28
2016-07-16T07:03:02.559Z,32.59
2016-07-16T07:04:02.602Z,32.33
2016-07-16T07:05:02.635Z,32.06
2016-07-16T07:06:02.678Z,32.25
2016-07-16T07:07:02.702Z,32.33
2016-07-16T07:08:02.738Z,31.54
2016-07-16T07:09:02.771Z,30.82
2016-07-16T07:10:17.735Z,31.48
2016-07-16T07:11:17.770Z,32.15
2016-07-16T07:12:02.883Z,32.26
2016-07-16T07:13:02.918Z,32.81
2016-07-16T07:14:02.951Z,33.18
2016-07-16T07:15:02.988Z,33.23
2016-07-16T07:16:03.023Z,33.12
2016-07-16T07:17:18.681Z,32.93
2016-07-16T07:18:03.096Z,32.84
2016-07-16T07:19:03.129Z,32.18
2016-07-16T07:20:03.169Z,32.28
2016-07-16T07:21:03.201Z,32.65
2016-07-16T07:23:03.272Z,33.03
2016-07-16T07:24:18.237Z,33.12
2016-07-16T07:25:03.345Z,33.29
2016-07-16T07:26:18.306Z,33.5
2016-07-16T07:27:03.421Z,33.49
2016-07-16T07:28:03.448Z,32.99
2016-07-16T07:29:03.497Z,33.12
2016-07-16T07:30:03.522Z,32.96
2016-07-16T07:31:03.560Z,32.56
2016-07-16T07:32:03.595Z,32.81
2016-07-16T07:33:03.634Z,32.85
2016-07-16T07:34:03.671Z,32.43
2016-07-16T07:35:03.703Z,32.78
2016-07-16T07:36:03.746Z,32.85
2016-07-16T07:37:03.775Z,32.96
2016-07-16T07:38:18.745Z,32.93
2016-07-16T07:39:03.849Z,32.94
2016-07-16T07:40:18.812Z,32.78
2016-07-16T07:41:03.923Z,32.43
2016-07-16T07:42:18.888Z,32.26
2016-07-16T07:43:03.993Z,32.3
2016-07-16T07:44:04.031Z,32.14
2016-07-16T07:45:04.072Z,31.95
2016-07-16T07:46:04.104Z,31.85
2016-07-16T07:47:04.137Z,32.01
2016-07-16T07:48:04.167Z,32.38
2016-07-16T07:49:04.211Z,32.6
2016-07-16T07:50:04.245Z,32.52
2016-07-16T07:51:04.282Z,32.74
2016-07-16T07:52:04.316Z,32.32
2016-07-16T07:53:04.351Z,32.04
2016-07-16T07:54:04.390Z,31.95
2016-07-16T07:56:04.467Z,31.93
2016-07-16T07:57:04.490Z,32.15
2016-07-16T07:58:19.465Z,31.78
2016-07-16T07:59:04.578Z,31.75
2016-07-16T08:00:04.602Z,32.15
2016-07-16T08:01:04.636Z,31.51
2016-07-16T08:02:04.680Z,31.14
2016-07-16T08:03:04.709Z,31.48
2016-07-16T08:04:04.745Z,31.48
2016-07-16T08:05:04.785Z,31.61
2016-07-16T08:06:04.819Z,30.75
2016-07-16T08:08:04.890Z,31.04
2016-07-16T08:09:04.924Z,30
2016-07-16T08:11:19.924Z,29.97
2016-07-16T08:12:05.034Z,30.17
2016-07-16T08:13:19.996Z,30.8
2016-07-16T08:14:05.107Z,31.48
2016-07-16T08:15:05.141Z,31.78
2016-07-16T08:16:05.179Z,31.62
2016-07-16T08:18:05.247Z,29.53
2016-07-16T08:19:05.277Z,29.82
2016-07-16T08:20:05.317Z,30.69
2016-07-16T08:21:05.345Z,31.09
2016-07-16T08:22:05.385Z,31.46
2016-07-16T08:23:05.428Z,31.57
2016-07-16T08:24:05.460Z,32.14
2016-07-16T08:25:05.493Z,31.46
2016-07-16T08:26:05.520Z,31.91
2016-07-16T08:27:05.560Z,32.1
2016-07-16T08:28:05.605Z,32.07
2016-07-16T08:29:05.627Z,32.13
2016-07-16T08:30:05.659Z,32.03
2016-07-16T08:31:05.699Z,31.91
2016-07-16T08:32:05.736Z,32
2016-07-16T08:33:05.765Z,31.81
2016-07-16T08:34:05.808Z,31.58
2016-07-16T08:35:05.834Z,31.54
2016-07-16T08:36:05.874Z,32.19
2016-07-16T08:37:05.914Z,32.29
2016-07-16T08:38:05.941Z,32.19
2016-07-16T08:39:05.975Z,32.35
2016-07-16T08:40:06.013Z,31.89
2016-07-16T08:41:06.052Z,31.09
2016-07-16T08:42:06.090Z,30.53
2016-07-16T08:43:06.119Z,31.07
2016-07-16T08:44:21.080Z,31.62
2016-07-16T08:45:21.117Z,32.07
2016-07-16T08:46:06.215Z,32.47
2016-07-16T08:47:06.261Z,31.62
2016-07-16T08:48:06.294Z,31.17
2016-07-16T08:49:06.322Z,31.25
2016-07-16T08:50:06.361Z,31.44
2016-07-16T08:51:06.391Z,31.73
2016-07-16T08:52:06.428Z,32.21
2016-07-16T08:53:06.461Z,32.79
2016-07-16T08:54:06.497Z,32.96
2016-07-16T08:55:06.533Z,32.7
2016-07-16T08:56:06.576Z,31.81
2016-07-16T08:57:06.601Z,30.91
2016-07-16T08:58:07.328Z,30.92
2016-07-16T08:59:06.668Z,30.92
2016-07-16T09:00:06.704Z,31.19
2016-07-16T09:01:21.661Z,31.99
2016-07-16T09:02:06.824Z,31.66
2016-07-16T09:03:06.808Z,31.7
2016-07-16T09:04:06.837Z,31.78
2016-07-16T09:05:06.869Z,31.91
2016-07-16T09:06:06.909Z,32.07
2016-07-16T09:07:06.945Z,31.47
2016-07-16T09:08:06.979Z,30.61
2016-07-16T09:09:07.009Z,30.94
2016-07-16T09:10:07.049Z,30.88
2016-07-16T09:11:07.778Z,30.51
2016-07-16T09:12:07.112Z,31.04
2016-07-16T09:14:07.184Z,32.23
2016-07-16T09:15:07.216Z,32.74
2016-07-16T09:16:07.249Z,32.93
2016-07-16T09:17:22.209Z,32.41
2016-07-16T09:18:07.322Z,32.35
2016-07-16T09:19:07.354Z,32.88
2016-07-16T09:20:07.392Z,33.32
2016-07-16T09:21:07.421Z,33.26
2016-07-16T09:22:07.454Z,33.45
2016-07-16T09:23:07.492Z,33.47
2016-07-16T09:24:07.520Z,33.41
2016-07-16T09:25:07.560Z,33.51
2016-07-16T09:26:07.593Z,33.44
2016-07-16T09:28:07.659Z,31.75
2016-07-16T09:29:07.692Z,31.01
2016-07-16T09:31:22.688Z,31.44
2016-07-16T09:32:07.796Z,31.34
2016-07-16T09:33:22.757Z,31.44
2016-07-16T09:34:22.787Z,32.14
2016-07-16T09:35:07.901Z,32.23
2016-07-16T09:36:07.929Z,32.19
2016-07-16T09:37:07.960Z,32.72
2016-07-16T09:38:07.993Z,32.87
2016-07-16T09:39:08.028Z,33.38
2016-07-16T09:40:08.064Z,32.99
2016-07-16T09:41:08.104Z,32.99
2016-07-16T09:44:08.196Z,31.78
2016-07-16T09:45:08.235Z,31.68
2016-07-16T09:46:08.268Z,31.95
2016-07-16T09:48:23.263Z,32.45
2016-07-16T09:49:08.364Z,32.37
2016-07-16T09:50:09.096Z,32.78
2016-07-16T09:51:08.432Z,32.81
2016-07-16T09:52:08.470Z,32.75
2016-07-16T09:53:08.501Z,32.47
2016-07-16T09:54:08.546Z,32.69
2016-07-16T09:55:08.569Z,32.93
2016-07-16T09:56:08.598Z,32.18
2016-07-16T09:57:08.637Z,31.14
2016-07-16T09:58:08.668Z,31.38
2016-07-16T09:59:08.702Z,31.44
2016-07-16T10:00:08.736Z,31.68
2016-07-16T10:01:08.771Z,31.95
2016-07-16T10:02:08.804Z,32.11
2016-07-16T10:03:08.852Z,31.63
2016-07-16T10:04:08.868Z,31.46
2016-07-16T10:05:23.828Z,31.36
2016-07-16T10:06:08.936Z,30.55
2016-07-16T10:07:08.970Z,30.91
2016-07-16T10:08:09.008Z,30.97
2016-07-16T10:09:09.033Z,31.44
2016-07-16T10:10:09.071Z,31.78
2016-07-16T10:11:09.099Z,32.4
2016-07-16T10:12:09.138Z,32.41
2016-07-16T10:13:09.168Z,31.78
2016-07-16T10:14:09.199Z,31.26
2016-07-16T10:15:09.235Z,31.28
2016-07-16T10:16:09.264Z,31.19
2016-07-16T10:18:09.337Z,31.07
2016-07-16T10:19:09.368Z,30.98
2016-07-16T10:20:24.324Z,30.73
2016-07-16T10:21:09.438Z,30.26
2016-07-16T10:22:09.465Z,30.11
2016-07-16T10:23:09.498Z,30.45
2016-07-16T10:24:09.529Z,30.54
2016-07-16T10:25:09.570Z,30.05
2016-07-16T10:26:09.597Z,30.27
2016-07-16T10:27:09.635Z,30.04
2016-07-16T10:28:09.662Z,29.87
2016-07-16T10:29:09.691Z,30.22
2016-07-16T10:30:09.727Z,30.55
2016-07-16T10:32:09.797Z,30.83
2016-07-16T10:33:09.830Z,30.73
2016-07-16T10:34:24.785Z,30.61
2016-07-16T10:35:09.894Z,30.58
2016-07-16T10:36:24.848Z,30.43
2016-07-16T10:37:09.955Z,30.38
2016-07-16T10:38:09.992Z,30.26
2016-07-16T10:39:10.026Z,29.85
2016-07-16T10:40:10.059Z,29.42
2016-07-16T10:41:10.090Z,29.12
2016-07-16T10:42:10.123Z,28.48
2016-07-16T10:43:10.159Z,28.14
2016-07-16T10:44:10.186Z,27.82
2016-07-16T10:45:10.232Z,28.07
2016-07-16T10:46:10.250Z,28.41
2016-07-16T10:47:10.288Z,28.49
2016-07-16T10:48:10.312Z,28.54
2016-07-16T10:49:10.350Z,28.52
2016-07-16T10:50:10.376Z,28.55
2016-07-16T10:51:10.409Z,28.4
2016-07-16T10:52:25.373Z,28.46
2016-07-16T10:53:10.471Z,28.49
2016-07-16T10:54:10.505Z,28.41
2016-07-16T10:55:10.541Z,28.31
2016-07-16T10:56:10.574Z,28.39
2016-07-16T10:57:10.614Z,28.14
2016-07-16T10:58:10.638Z,27.94
2016-07-16T10:59:10.667Z,27.67
2016-07-16T11:00:10.704Z,27.82
2016-07-16T11:01:10.732Z,27.94
2016-07-16T11:02:10.764Z,27.97
2016-07-16T11:03:10.798Z,28.04
2016-07-16T11:04:10.829Z,28.22
2016-07-16T11:05:10.862Z,28.29
2016-07-16T11:06:10.899Z,28.62
2016-07-16T11:07:10.923Z,28.7
2016-07-16T11:08:25.882Z,28.67
2016-07-16T11:09:10.988Z,28.31
2016-07-16T11:10:11.024Z,28.19
2016-07-16T11:12:11.089Z,28.22
2016-07-16T11:13:11.114Z,27.85
2016-07-16T11:14:11.160Z,27.7
2016-07-16T11:15:11.184Z,27.75
2016-07-16T11:16:11.215Z,27.82
2016-07-16T11:17:11.243Z,27.57
2016-07-16T11:18:11.975Z,27.66
2016-07-16T11:19:11.311Z,27.65
2016-07-16T11:20:11.346Z,27.4
2016-07-16T11:21:11.369Z,27.4
2016-07-16T11:22:11.399Z,27.41
2016-07-16T11:23:26.363Z,27.43
2016-07-16T11:24:26.390Z,27.29
2016-07-16T11:25:12.200Z,27.19
2016-07-16T11:26:26.453Z,27.51
2016-07-16T11:27:11.562Z,27.7
2016-07-16T11:28:11.589Z,27.75
2016-07-16T11:29:11.629Z,27.6
2016-07-16T11:30:11.658Z,27.75
2016-07-16T11:31:11.692Z,27.74
2016-07-16T11:32:11.717Z,27.78
2016-07-16T11:33:11.746Z,27.44
2016-07-16T11:35:12.020Z,27.63
2016-07-16T11:36:11.843Z,27.78
2016-07-16T11:37:11.876Z,27.78
2016-07-16T11:38:11.909Z,27.54
2016-07-16T11:39:11.940Z,27.51
2016-07-16T11:40:11.974Z,27.44
2016-07-16T11:41:12.004Z,27.18
2016-07-16T11:42:12.027Z,27.03
2016-07-16T11:43:12.059Z,27.34
2016-07-16T11:44:12.094Z,27.46
2016-07-16T11:45:12.129Z,27.18
2016-07-16T11:46:12.158Z,27.12
2016-07-16T11:47:12.191Z,27.36
2016-07-16T11:48:12.224Z,27.66
2016-07-16T11:49:12.248Z,27.74
2016-07-16T11:50:12.277Z,27.78
2016-07-16T11:51:12.311Z,28
2016-07-16T11:52:12.347Z,27.97
2016-07-16T11:53:12.368Z,28.17
2016-07-16T11:55:28.059Z,27.65
2016-07-16T11:56:12.465Z,27.67
2016-07-16T11:57:12.494Z,27.81
2016-07-16T11:58:12.528Z,27.66
2016-07-16T11:59:12.573Z,27.67
2016-07-16T12:00:12.594Z,27.63
2016-07-16T12:01:12.626Z,27.66
2016-07-16T12:02:12.654Z,27.93
2016-07-16T12:03:12.682Z,27.94
2016-07-16T12:04:12.718Z,27.66
2016-07-16T12:05:12.749Z,27.27
2016-07-16T12:06:12.786Z,27.24
2016-07-16T12:07:12.807Z,27.41
2016-07-16T12:08:12.854Z,27.51
2016-07-16T12:09:27.800Z,27.57
2016-07-16T12:10:12.897Z,27.41
2016-07-16T12:11:27.910Z,26.91
2016-07-16T12:12:12.970Z,27.02
2016-07-16T12:13:13.011Z,27.37
2016-07-16T12:14:13.026Z,27.72
2016-07-16T12:15:13.053Z,27.29
2016-07-16T12:17:13.126Z,27.62
2016-07-16T12:18:13.153Z,27.43
2016-07-16T12:19:13.185Z,27.65
2016-07-16T12:20:13.212Z,27.54
2016-07-16T12:21:13.240Z,27.18
2016-07-16T12:22:13.270Z,27.27
2016-07-16T12:23:28.234Z,27.22
2016-07-16T12:24:28.263Z,27.25
2016-07-16T12:25:28.293Z,27.44
2016-07-16T12:26:13.401Z,27.5
2016-07-16T12:27:28.357Z,27.69
2016-07-16T12:29:13.490Z,27.69
2016-07-16T12:30:13.524Z,27.59
2016-07-16T12:31:13.549Z,27.67
2016-07-16T12:32:13.580Z,27.77
2016-07-16T12:33:13.612Z,27.7
2016-07-16T12:34:13.644Z,27.09
2016-07-16T12:35:13.678Z,27.12
2016-07-16T12:36:13.711Z,27.04
2016-07-16T12:37:13.736Z,27.06
2016-07-16T12:38:13.766Z,26.92
2016-07-16T12:39:28.726Z,27.06
2016-07-16T12:40:13.827Z,27.1
2016-07-16T12:41:13.874Z,27.13
2016-07-16T12:42:28.815Z,27.24
2016-07-16T12:43:28.842Z,27.32
2016-07-16T12:45:13.985Z,27.13
2016-07-16T12:46:28.933Z,27.07
2016-07-16T12:47:14.043Z,26.87
2016-07-16T12:48:14.071Z,26.67
2016-07-16T12:49:14.101Z,26.67
2016-07-16T12:50:14.145Z,26.63
2016-07-16T12:51:14.170Z,26.7
2016-07-16T12:52:14.193Z,26.85
2016-07-16T12:53:14.227Z,26.62
2016-07-16T12:54:14.256Z,26.32
2016-07-16T12:55:14.288Z,26.12
2016-07-16T12:57:14.347Z,26.48
2016-07-16T12:58:29.310Z,26.6
2016-07-16T12:59:14.413Z,26.76
2016-07-16T13:00:14.441Z,27
2016-07-16T13:01:14.473Z,27
2016-07-16T13:02:14.508Z,27.13
2016-07-16T13:04:14.565Z,27.29
2016-07-16T13:05:14.589Z,27.28
2016-07-16T13:06:14.625Z,27.29
2016-07-16T13:07:14.663Z,27.31
2016-07-16T13:08:14.683Z,27.36
2016-07-16T13:09:14.715Z,27.51
2016-07-16T13:10:14.750Z,27.43
2016-07-16T13:11:14.778Z,27.37
2016-07-16T13:12:29.783Z,27.21
2016-07-16T13:13:14.842Z,27.22
2016-07-16T13:14:29.795Z,27.31
2016-07-16T13:15:15.602Z,27.25
2016-07-16T13:16:14.929Z,27.17
2016-07-16T13:17:14.960Z,27.02
2016-07-16T13:18:14.987Z,27.09
2016-07-16T13:20:15.051Z,27.06
2016-07-16T13:21:15.094Z,27.19
2016-07-16T13:22:15.114Z,27.18
2016-07-16T13:23:15.138Z,27.07
2016-07-16T13:24:15.175Z,27.06
2016-07-16T13:25:15.205Z,27.27
2016-07-16T13:26:15.231Z,27.36
2016-07-16T13:27:15.261Z,27.25
2016-07-16T13:28:15.304Z,27.29
2016-07-16T13:29:15.330Z,27.21
2016-07-16T13:30:30.283Z,26.8
2016-07-16T13:31:15.393Z,26.8
2016-07-16T13:32:15.417Z,26.81
2016-07-16T13:33:15.446Z,26.72
2016-07-16T13:34:15.485Z,26.92
2016-07-16T13:35:15.510Z,26.91